Time;durP1;ratioP1;P1;durP2;ratioP2;P2;SDS_P1;SDS_P2;PMS_P1;PMS_P2;Temp;Humidity;BMP_temperature;BMP_pressure;BME280_temperature;BME280_humidity;BME280_pressure;Samples;Min_cycle;Max_cycle;Signal;HPM_P1;HPM_P2
2021/05/17 00:00:09;;;;;;;1.73;0.97;;;;;;;8.55;81.06;99394.30;128371;1101;62295;-75
2021/05/17 00:02:36;;;;;;;1.50;0.80;;;;;;;8.51;81.66;99398.34;128402;1101;62277;-75
2021/05/17 00:05:05;;;;;;;2.67;0.90;;;;;;;8.48;81.72;99404.03;128280;1101;62080;-75
2021/05/17 00:07:32;;;;;;;1.97;1.03;;;;;;;8.45;81.31;99396.47;128623;1101;62383;-75
2021/05/17 00:09:59;;;;;;;2.60;0.90;;;;;;;8.44;81.82;99396.69;128403;1101;62952;-75
2021/05/17 00:12:26;;;;;;;3.97;0.90;;;;;;;8.43;81.56;99395.84;128384;1101;62107;-74
2021/05/17 00:14:53;;;;;;;1.37;1.00;;;;;;;8.41;81.59;99397.86;128406;1101;62705;-75
2021/05/17 00:17:21;;;;;;;1.45;1.15;;;;;;;8.40;82.13;99401.50;128406;1101;62084;-75
2021/05/17 00:19:49;;;;;;;1.13;0.80;;;;;;;8.38;81.93;99400.88;128402;1101;62087;-75
2021/05/17 00:22:16;;;;;;;2.67;0.93;;;;;;;8.35;83.33;99403.88;128383;1101;61986;-75
2021/05/17 00:24:44;;;;;;;3.30;1.10;;;;;;;8.33;83.25;99396.17;128346;1101;62214;-75
2021/05/17 00:27:12;;;;;;;1.53;0.90;;;;;;;8.33;83.42;99396.17;128411;1101;62083;-75
2021/05/17 00:29:39;;;;;;;3.47;0.80;;;;;;;8.33;84.11;99390.05;128392;1101;62750;-75
2021/05/17 00:32:06;;;;;;;3.00;1.00;;;;;;;8.31;84.34;99392.91;128442;1101;63144;-74
2021/05/17 00:34:33;;;;;;;4.70;1.00;;;;;;;8.32;83.59;99385.78;128373;1101;62235;-75
2021/05/17 00:37:01;;;;;;;1.00;0.60;;;;;;;8.30;83.44;99391.25;128344;1101;62663;-75
2021/05/17 00:39:29;;;;;;;1.63;1.10;;;;;;;8.27;84.27;99404.05;128390;1101;62160;-75
2021/05/17 00:41:56;;;;;;;3.73;0.87;;;;;;;8.23;84.31;99402.80;128415;1101;62125;-75
2021/05/17 00:44:27;;;;;;;2.80;1.00;;;;;;;8.17;84.66;99402.53;128395;1101;62220;-75
2021/05/17 00:46:55;;;;;;;1.27;0.90;;;;;;;8.15;85.44;99399.27;128432;1101;62413;-75
2021/05/17 00:49:22;;;;;;;2.00;0.90;;;;;;;8.08;86.20;99387.84;128392;1101;62156;-76
2021/05/17 00:51:49;;;;;;;3.87;1.20;;;;;;;8.14;86.72;99397.65;128350;1101;62130;-76
2021/05/17 00:54:16;;;;;;;2.43;0.97;;;;;;;8.15;86.11;99399.27;128345;1101;62144;-76
2021/05/17 00:56:44;;;;;;;3.20;1.00;;;;;;;8.16;86.22;99400.92;128423;1101;62159;-76
2021/05/17 00:59:11;;;;;;;3.57;1.23;;;;;;;8.15;86.34;99399.27;128388;1101;62055;-75
2021/05/17 01:01:38;;;;;;;1.87;0.80;;;;;;;8.15;86.47;99401.91;128376;1101;62173;-75
2021/05/17 01:04:05;;;;;;;3.37;1.07;;;;;;;8.20;86.14;99408.45;128374;1101;62284;-75
2021/05/17 01:06:33;;;;;;;2.67;1.13;;;;;;;8.24;86.96;99407.06;128425;1101;62069;-75
2021/05/17 01:09:08;;;;;;;3.53;0.87;;;;;;;8.30;87.27;99403.66;128400;1101;62031;-75
2021/05/17 01:11:36;;;;;;;1.30;0.83;;;;;;;8.40;87.00;99403.33;128461;1101;62389;-75
2021/05/17 01:14:05;;;;;;;2.07;0.77;;;;;;;8.48;86.45;99409.31;128370;1101;62359;-76
2021/05/17 01:16:33;;;;;;;2.07;0.83;;;;;;;8.56;86.67;99409.17;128434;1101;62230;-75
2021/05/17 01:19:00;;;;;;;2.60;0.80;;;;;;;8.63;86.54;99416.30;128129;1102;62141;-75
2021/05/17 01:21:34;;;;;;;1.90;0.70;;;;;;;8.70;85.97;99417.17;128412;1101;61988;-75
2021/05/17 01:24:01;;;;;;;2.23;0.70;;;;;;;8.75;85.31;99417.40;128372;1101;62835;-75
2021/05/17 01:26:32;;;;;;;1.57;1.43;;;;;;;8.78;85.32;99409.09;128349;1101;62614;-75
2021/05/17 01:29:05;;;;;;;2.57;0.80;;;;;;;8.80;85.63;99417.66;128389;1101;63222;-75
2021/05/17 01:31:34;;;;;;;1.90;1.10;;;;;;;8.82;84.76;99405.05;128394;1101;62259;-75
2021/05/17 01:34:02;;;;;;;1.50;0.90;;;;;;;8.81;84.76;99406.05;128371;1101;62351;-75
2021/05/17 01:36:30;;;;;;;5.47;0.90;;;;;;;8.80;84.23;99409.72;128314;1101;62150;-75
2021/05/17 01:38:58;;;;;;;1.67;0.80;;;;;;;8.79;84.70;99410.72;128373;1101;62306;-75
2021/05/17 01:41:26;;;;;;;1.43;0.70;;;;;;;8.76;84.30;99401.34;128364;1101;62395;-75
2021/05/17 01:43:55;;;;;;;1.13;0.60;;;;;;;8.74;84.97;99413.95;128378;1101;62215;-75
2021/05/17 01:46:26;;;;;;;1.50;0.70;;;;;;;8.70;85.03;99409.25;128334;1101;62965;-75
2021/05/17 01:48:58;;;;;;;2.57;0.80;;;;;;;8.67;84.06;99409.62;128367;1101;62023;-76
2021/05/17 01:51:26;;;;;;;1.40;0.70;;;;;;;8.62;84.23;99406.75;128377;1101;62401;-76
2021/05/17 01:53:54;;;;;;;2.53;0.90;;;;;;;8.58;84.48;99408.95;128385;1101;62772;-76
2021/05/17 01:56:21;;;;;;;1.30;0.73;;;;;;;8.53;84.82;99409.54;128390;1101;62294;-77
2021/05/17 01:58:48;;;;;;;1.90;0.50;;;;;;;8.52;84.60;99415.02;128393;1101;62821;-76
2021/05/17 02:01:18;;;;;;;2.67;0.63;;;;;;;8.49;84.66;99412.77;128378;1101;62609;-76
2021/05/17 02:03:47;;;;;;;0.70;0.43;;;;;;;8.47;84.33;99425.36;128360;1101;62323;-76
2021/05/17 02:06:17;;;;;;;1.50;0.77;;;;;;;8.45;83.98;99414.97;128396;1101;62545;-76
2021/05/17 02:08:49;;;;;;;0.77;0.50;;;;;;;8.41;84.46;99419.00;128184;1102;62302;-76
2021/05/17 02:11:18;;;;;;;1.37;0.70;;;;;;;8.36;84.97;99416.91;128311;1101;62384;-76
2021/05/17 02:13:47;;;;;;;1.77;0.97;;;;;;;8.33;84.94;99421.75;128374;1101;62089;-75
2021/05/17 02:16:15;;;;;;;7.40;1.00;;;;;;;8.31;84.50;99423.80;128396;1101;62010;-74
2021/05/17 02:18:44;;;;;;;1.07;0.60;;;;;;;8.28;84.84;99421.52;128415;1101;62289;-74
2021/05/17 02:21:13;;;;;;;1.37;0.70;;;;;;;8.27;84.80;99418.07;128416;1101;62048;-77
2021/05/17 02:23:41;;;;;;;3.73;0.70;;;;;;;8.26;85.03;99418.25;128429;1101;62146;-76
2021/05/17 02:26:08;;;;;;;2.07;0.60;;;;;;;8.24;84.89;99417.63;128399;1101;62169;-76
2021/05/17 02:28:38;;;;;;;2.17;0.80;;;;;;;8.20;84.28;99417.18;128389;1101;62167;-76
2021/05/17 02:31:06;;;;;;;2.50;0.80;;;;;;;8.16;84.61;99426.52;128390;1101;62465;-75
2021/05/17 02:33:34;;;;;;;1.00;0.47;;;;;;;8.11;84.48;99423.61;128402;1101;63563;-75
2021/05/17 02:36:04;;;;;;;0.70;0.50;;;;;;;7.99;84.60;99414.56;128365;1101;62322;-75
2021/05/17 02:38:31;;;;;;;2.07;0.73;;;;;;;8.03;85.07;99421.91;128409;1101;63885;-75
2021/05/17 02:40:59;;;;;;;1.93;0.80;;;;;;;8.01;85.41;99423.11;128079;1101;62285;-76
2021/05/17 02:43:28;;;;;;;1.30;0.70;;;;;;;7.97;85.87;99430.62;128381;1101;62371;-76
2021/05/17 02:45:56;;;;;;;2.70;0.83;;;;;;;7.95;86.30;99427.34;128370;1101;62643;-75
2021/05/17 02:48:28;;;;;;;1.23;0.70;;;;;;;7.91;86.05;99429.54;128400;1101;61999;-75
2021/05/17 02:50:57;;;;;;;1.70;0.80;;;;;;;7.88;86.30;99431.73;128342;1101;62768;-76
2021/05/17 02:53:37;;;;;;;1.53;0.87;;;;;;;7.85;86.31;99429.48;128381;1101;63975;-75
2021/05/17 02:56:10;;;;;;;2.27;0.80;;;;;;;7.83;86.10;99442.05;128331;1101;62085;-75
2021/05/17 02:58:40;;;;;;;1.30;0.70;;;;;;;7.80;86.31;99437.97;128431;1101;62904;-75
2021/05/17 03:01:16;;;;;;;0.87;0.60;;;;;;;7.80;86.65;99431.84;128402;1101;62111;-75
2021/05/17 03:03:45;;;;;;;1.37;0.80;;;;;;;7.79;86.77;99440.78;128368;1101;62124;-75
2021/05/17 03:06:21;;;;;;;2.43;0.87;;;;;;;7.76;86.87;99439.34;128366;1101;61965;-75
2021/05/17 03:09:08;;;;;;;1.37;0.60;;;;;;;7.73;86.19;99443.16;128389;1100;62033;-76
2021/05/17 03:11:40;;;;;;;1.03;0.60;;;;;;;7.68;86.41;99437.63;128611;1101;61868;-76
2021/05/17 03:14:14;;;;;;;4.07;1.03;;;;;;;7.62;85.89;99443.66;128386;1101;62195;-76
2021/05/17 03:16:46;;;;;;;2.70;0.60;;;;;;;7.58;86.52;99449.49;128407;1101;63271;-76
2021/05/17 03:19:14;;;;;;;1.27;0.60;;;;;;;7.53;86.52;99448.23;128369;1101;62179;-75
2021/05/17 03:21:43;;;;;;;1.53;0.80;;;;;;;7.49;87.18;99452.23;128366;1101;62239;-75
2021/05/17 03:24:12;;;;;;;1.33;0.87;;;;;;;7.46;87.05;99457.06;128390;1101;62515;-75
2021/05/17 03:26:41;;;;;;;2.17;0.80;;;;;;;7.45;87.37;99456.25;128392;1101;62089;-75
2021/05/17 03:29:08;;;;;;;2.00;0.93;;;;;;;7.46;88.53;99463.17;128384;1101;62864;-75
2021/05/17 03:31:35;;;;;;;3.80;0.90;;;;;;;7.47;88.23;99463.98;128347;1101;62177;-75
2021/05/17 03:34:02;;;;;;;4.27;0.90;;;;;;;7.49;88.47;99460.16;128397;1101;62526;-76
2021/05/17 03:36:29;;;;;;;1.73;0.90;;;;;;;7.54;88.62;99470.15;128397;1101;62255;-76
2021/05/17 03:38:56;;;;;;;1.17;0.70;;;;;;;7.58;88.05;99470.61;128424;1101;62040;-75
2021/05/17 03:41:23;;;;;;;4.07;1.03;;;;;;;7.61;87.91;99468.42;128353;1101;62853;-79
2021/05/17 03:43:50;;;;;;;1.50;0.80;;;;;;;7.66;87.89;99468.67;128369;1101;62929;-75
2021/05/17 03:46:17;;;;;;;3.73;1.00;;;;;;;7.68;87.72;99469.30;128374;1101;62101;-75
2021/05/17 03:48:44;;;;;;;1.80;0.97;;;;;;;7.70;87.62;99462.02;128393;1101;62367;-76
2021/05/17 03:51:12;;;;;;;2.27;1.00;;;;;;;7.71;87.34;99468.95;128373;1101;62245;-76
2021/05/17 03:53:39;;;;;;;2.03;0.80;;;;;;;7.72;87.33;99462.65;128392;1101;63986;-76
2021/05/17 03:56:07;;;;;;;3.90;1.30;;;;;;;7.75;87.39;99467.55;128400;1101;62267;-75
2021/05/17 03:58:34;;;;;;;1.90;0.90;;;;;;;7.78;87.06;99470.81;128324;1101;62487;-76
2021/05/17 04:01:01;;;;;;;2.00;0.73;;;;;;;7.83;86.72;99473.73;128371;1101;62356;-75
2021/05/17 04:03:28;;;;;;;2.70;1.20;;;;;;;7.86;86.70;99473.34;128399;1101;62897;-74
2021/05/17 04:14:00;;;;;;;3.40;1.00;;;;;;;7.99;86.34;99484.06;128369;1101;63140;-75
2021/05/17 04:16:28;;;;;;;3.70;1.30;;;;;;;8.05;86.12;99478.00;128417;1101;62228;-75
2021/05/17 04:18:55;;;;;;;2.53;1.00;;;;;;;8.10;86.17;99480.11;128401;1101;62928;-75
2021/05/17 04:21:22;;;;;;;2.23;1.00;;;;;;;8.16;85.49;99484.64;128381;1101;62327;-75
2021/05/17 04:23:49;;;;;;;4.67;1.30;;;;;;;8.23;85.68;99484.69;128382;1101;62307;-75
2021/05/17 04:26:16;;;;;;;4.00;1.00;;;;;;;8.27;85.71;99485.95;128412;1101;62716;-75
2021/05/17 04:28:43;;;;;;;2.07;1.10;;;;;;;8.32;85.44;99488.83;128400;1101;62042;-75
2021/05/17 04:31:09;;;;;;;4.87;1.20;;;;;;;8.39;84.88;99479.13;128400;1101;62875;-75
2021/05/17 04:33:36;;;;;;;2.30;1.00;;;;;;;8.48;84.95;99488.60;128378;1101;62425;-75
2021/05/17 04:36:04;;;;;;;10.53;3.93;;;;;;;8.55;84.37;99494.75;128436;1101;62190;-75
2021/05/17 04:38:31;;;;;;;3.23;1.13;;;;;;;8.64;84.30;99486.68;128415;1101;62480;-75
2021/05/17 04:40:58;;;;;;;2.97;1.40;;;;;;;8.70;84.13;99494.66;128420;1101;62147;-76
2021/05/17 04:43:25;;;;;;;2.60;0.80;;;;;;;8.74;83.64;99497.74;128361;1101;62125;-75
2021/05/17 04:45:52;;;;;;;1.90;0.90;;;;;;;8.79;83.96;99500.62;128394;1101;62269;-75
2021/05/17 04:48:19;;;;;;;2.40;1.00;;;;;;;8.89;83.30;99500.30;128400;1101;63706;-75
2021/05/17 04:50:46;;;;;;;5.57;1.37;;;;;;;8.98;83.37;99499.12;128397;1101;62473;-75
2021/05/17 04:53:13;;;;;;;8.47;1.50;;;;;;;9.08;82.73;99506.72;128337;1101;62300;-75
2021/05/17 04:55:40;;;;;;;1.77;1.00;;;;;;;9.19;83.26;99496.39;128335;1101;62709;-75
2021/05/17 04:58:10;;;;;;;4.43;1.57;;;;;;;9.31;82.59;99504.61;128397;1101;62393;-75
2021/05/17 05:00:37;;;;;;;9.47;1.70;;;;;;;9.42;82.40;99503.23;128363;1101;62640;-74
2021/05/17 05:03:05;;;;;;;2.37;1.20;;;;;;;9.53;81.57;99507.96;128361;1101;62222;-75
2021/05/17 05:05:31;;;;;;;5.13;1.77;;;;;;;9.64;81.82;99503.92;128381;1101;62494;-75
2021/05/17 05:07:58;;;;;;;4.70;1.67;;;;;;;9.77;81.03;99508.45;128399;1101;62053;-74
2021/05/17 05:10:25;;;;;;;3.27;1.60;;;;;;;9.88;80.36;99507.90;128402;1101;62155;-74
2021/05/17 05:12:52;;;;;;;3.70;1.57;;;;;;;10.00;79.84;99513.41;128377;1101;62372;-74
2021/05/17 05:15:19;;;;;;;3.00;1.83;;;;;;;10.15;79.81;99508.75;128401;1101;62259;-74
2021/05/17 05:17:46;;;;;;;3.23;1.80;;;;;;;10.31;78.27;99514.74;128410;1101;63051;-74
2021/05/17 05:20:14;;;;;;;3.10;1.97;;;;;;;10.46;78.24;99518.02;128366;1101;63043;-74
2021/05/17 05:22:41;;;;;;;3.80;1.70;;;;;;;10.63;77.83;99517.62;128373;1101;62095;-74
2021/05/17 05:25:09;;;;;;;7.00;2.20;;;;;;;10.73;76.73;99524.14;128434;1101;62140;-74
2021/05/17 05:27:41;;;;;;;6.07;2.13;;;;;;;10.82;76.59;99519.44;128307;1101;62080;-75
2021/05/17 05:33:07;;;;;;;3.57;1.80;;;;;;;10.86;75.92;99525.97;128400;1101;62004;-75
2021/05/17 05:35:34;;;;;;;3.70;1.73;;;;;;;10.88;75.77;99521.28;128374;1101;62041;-75
2021/05/17 05:38:02;;;;;;;3.03;2.23;;;;;;;10.91;76.07;99520.85;128415;1101;62264;-74
2021/05/17 05:40:30;;;;;;;6.00;3.60;;;;;;;10.94;75.64;99515.13;128399;1101;63237;-74
2021/05/17 05:42:57;;;;;;;5.33;2.90;;;;;;;11.06;76.44;99528.59;128422;1101;62285;-74
2021/05/17 05:45:26;;;;;;;3.50;1.70;;;;;;;11.16;75.91;99528.17;127535;1101;64333;-74
2021/05/17 05:47:54;;;;;;;3.40;1.97;;;;;;;11.25;75.37;99532.23;127661;1101;62202;-73
2021/05/17 05:50:22;;;;;;;4.17;2.10;;;;;;;11.37;75.50;99535.08;128355;1101;62267;-73
2021/05/17 05:52:49;;;;;;;2.97;1.70;;;;;;;11.42;74.86;99530.75;128281;1101;62271;-73
2021/05/17 05:55:17;;;;;;;3.53;1.93;;;;;;;11.51;74.82;99541.15;127923;1101;62415;-73
2021/05/17 05:57:45;;;;;;;5.00;2.10;;;;;;;11.50;73.88;99537.69;128345;1101;62594;-73
2021/05/17 06:00:18;;;;;;;3.43;1.97;;;;;;;11.49;73.89;99529.91;128339;1101;62904;-73
2021/05/17 06:02:45;;;;;;;4.63;2.20;;;;;;;11.47;73.33;99539.93;128373;1101;62057;-73
2021/05/17 06:05:12;;;;;;;4.20;2.03;;;;;;;11.38;73.86;99550.77;128345;1101;62243;-74
2021/05/17 06:07:39;;;;;;;4.20;2.20;;;;;;;11.39;74.29;99554.23;128337;1101;62299;-73
2021/05/17 06:10:09;;;;;;;4.33;2.90;;;;;;;11.37;74.63;99551.81;128395;1101;62872;-73
2021/05/17 06:12:40;;;;;;;4.40;2.07;;;;;;;11.41;75.04;99552.19;128400;1101;62600;-73
2021/05/17 06:15:11;;;;;;;5.27;2.43;;;;;;;11.55;74.55;99555.64;128400;1101;62765;-75
2021/05/17 06:17:38;;;;;;;3.87;2.47;;;;;;;11.66;74.37;99552.33;128332;1101;62222;-75
2021/05/17 06:20:06;;;;;;;4.40;2.47;;;;;;;11.76;74.18;99560.67;128476;1101;62043;-75
2021/05/17 06:22:37;;;;;;;6.57;2.27;;;;;;;11.75;73.55;99555.56;128246;1102;62860;-75
2021/05/17 06:25:09;;;;;;;3.93;2.40;;;;;;;11.80;73.82;99559.23;128504;1101;62012;-73
2021/05/17 06:27:37;;;;;;;14.13;8.33;;;;;;;11.82;73.53;99562.48;128452;1101;61958;-73
2021/05/17 06:30:09;;;;;;;5.67;3.03;;;;;;;11.84;73.31;99568.41;128485;1101;62011;-74
2021/05/17 06:32:38;;;;;;;5.70;2.20;;;;;;;11.91;72.76;99565.75;128472;1101;62414;-74
2021/05/17 06:35:08;;;;;;;5.77;2.87;;;;;;;11.96;72.91;99560.60;128499;1101;62808;-73
2021/05/17 06:37:35;;;;;;;4.27;2.77;;;;;;;12.05;72.09;99558.55;128499;1101;62281;-72
2021/05/17 06:40:04;;;;;;;4.17;2.67;;;;;;;12.18;71.43;99553.14;128448;1101;62990;-72
2021/05/17 06:42:31;;;;;;;17.30;8.67;;;;;;;12.34;71.32;99561.64;128489;1101;62318;-73
2021/05/17 06:44:59;;;;;;;7.17;3.50;;;;;;;12.39;69.89;99564.48;128506;1101;61985;-73
2021/05/17 06:47:26;;;;;;;3.80;2.03;;;;;;;12.49;70.12;99564.00;128498;1101;62207;-73
2021/05/17 06:49:53;;;;;;;4.53;2.30;;;;;;;12.56;69.63;99568.25;128487;1101;62250;-72
2021/05/17 06:52:24;;;;;;;4.07;2.67;;;;;;;12.74;69.77;99575.48;128444;1101;62395;-72
2021/05/17 07:00:29;;;;;;;1.77;1.10;;;;;;;13.25;66.77;99573.61;128496;1101;62853;-72
2021/05/17 07:02:58;;;;;;;3.00;1.80;;;;;;;13.33;65.85;99581.34;128503;1101;62510;-73
2021/05/17 07:05:26;;;;;;;7.73;3.30;;;;;;;13.32;65.75;99579.70;128457;1101;62268;-73
2021/05/17 07:13:07;;;;;;;4.93;2.43;;;;;;;13.61;64.21;99577.37;128454;1101;62835;-73
2021/05/17 07:15:34;;;;;;;2.73;1.60;;;;;;;13.71;64.05;99585.66;128450;1101;62205;-72
2021/05/17 07:18:01;;;;;;;4.63;2.00;;;;;;;13.68;63.67;99583.42;128476;1101;62047;-73
2021/05/17 07:23:37;;;;;;;5.17;2.00;;;;;;;13.68;63.53;99599.41;128453;1101;61989;-73
2021/05/17 07:26:07;;;;;;;3.00;1.67;;;;;;;13.56;63.74;99590.55;128442;1101;62643;-73
2021/05/17 07:28:35;;;;;;;3.30;1.60;;;;;;;13.42;64.95;99588.01;128468;1101;62230;-74
2021/05/17 07:31:05;;;;;;;4.83;1.60;;;;;;;13.35;65.65;99594.45;128240;1101;62209;-73
2021/05/17 07:33:33;;;;;;;3.67;1.40;;;;;;;13.36;65.83;99591.55;128186;1101;62234;-73
2021/05/17 07:36:00;;;;;;;3.13;1.70;;;;;;;13.30;66.18;99589.76;128467;1101;62042;-73
2021/05/17 07:38:29;;;;;;;4.70;2.00;;;;;;;13.29;65.46;99590.81;128409;1101;63343;-73
2021/05/17 07:40:58;;;;;;;3.93;1.90;;;;;;;13.26;65.93;99591.23;128169;1101;62242;-74
2021/05/17 07:43:26;;;;;;;4.10;2.00;;;;;;;13.24;65.69;99599.43;128450;1101;61942;-74
2021/05/17 07:45:54;;;;;;;4.20;2.10;;;;;;;13.14;65.58;99592.98;128445;1101;62328;-74
2021/05/17 07:48:21;;;;;;;3.37;1.90;;;;;;;13.02;65.92;99596.33;128392;1101;62075;-74
2021/05/17 07:50:49;;;;;;;5.70;2.43;;;;;;;13.01;66.89;99600.04;128178;1101;64089;-74
2021/05/17 07:53:16;;;;;;;7.77;3.57;;;;;;;12.98;66.36;99604.98;128368;1101;62398;-76
2021/05/17 07:55:44;;;;;;;6.00;2.90;;;;;;;12.92;67.19;99606.68;128346;1101;64086;-76
2021/05/17 07:58:12;;;;;;;4.93;2.70;;;;;;;12.89;67.71;99615.08;128407;1101;62020;-77
2021/05/17 08:00:39;;;;;;;7.20;3.33;;;;;;;12.85;67.48;99613.88;128509;1101;62166;-79
2021/05/17 08:03:06;;;;;;;5.37;3.50;;;;;;;12.78;68.01;99605.14;128489;1101;62226;-79
2021/05/17 08:05:53;;;;;;;3.57;2.43;;;;;;;12.72;68.26;99616.64;128482;1101;62313;-78
2021/05/17 08:08:20;;;;;;;7.00;4.10;;;;;;;12.62;67.70;99606.46;128485;1101;62101;-78
2021/05/17 08:10:47;;;;;;;6.10;3.10;;;;;;;12.58;69.06;99613.24;128352;1101;62284;-78
2021/05/17 08:13:14;;;;;;;6.93;3.50;;;;;;;12.55;69.16;99605.70;128413;1101;62262;-76
2021/05/17 08:15:45;;;;;;;7.53;3.20;;;;;;;12.63;69.24;99613.43;128378;1101;62258;-76
2021/05/17 08:18:12;;;;;;;5.60;2.83;;;;;;;12.70;69.31;99614.19;128340;1101;62428;-76
2021/05/17 08:20:40;;;;;;;6.40;3.93;;;;;;;12.82;67.92;99616.98;128378;1101;63156;-80
2021/05/17 08:23:10;;;;;;;8.17;3.73;;;;;;;12.91;67.16;99615.68;128236;1101;62534;-82
2021/05/17 08:25:38;;;;;;;7.43;3.73;;;;;;;13.03;66.75;99627.27;128414;1101;62317;-80
2021/05/17 08:28:05;;;;;;;6.77;4.20;;;;;;;13.22;66.79;99632.65;128191;1101;62875;-80
2021/05/17 08:30:40;;;;;;;6.93;3.70;;;;;;;13.35;65.96;99624.56;128467;1101;62523;-80
2021/05/17 08:33:08;;;;;;;6.97;4.00;;;;;;;13.46;65.24;99628.35;128442;1101;62297;-80
2021/05/17 08:35:36;;;;;;;7.53;4.03;;;;;;;13.55;64.84;99626.22;128465;1101;62204;-80
2021/05/17 08:38:04;;;;;;;5.00;2.83;;;;;;;13.53;65.26;99622.95;128520;1101;62125;-80
2021/05/17 08:40:35;;;;;;;6.57;4.00;;;;;;;13.54;64.53;99624.59;128323;1101;62695;-79
2021/05/17 08:43:03;;;;;;;5.07;3.13;;;;;;;13.63;65.54;99625.92;128509;1101;62181;-78
2021/05/17 08:45:32;;;;;;;6.73;3.37;;;;;;;13.67;64.64;99629.78;128441;1101;61714;-77
2021/05/17 08:47:59;;;;;;;8.83;4.17;;;;;;;13.69;64.50;99638.38;128428;1101;62312;-78
2021/05/17 08:50:27;;;;;;;5.63;3.10;;;;;;;13.75;64.10;99631.32;128485;1101;62442;-77
2021/05/17 08:52:54;;;;;;;4.67;2.90;;;;;;;13.87;63.74;99630.36;128439;1101;63624;-76
2021/05/17 08:55:21;;;;;;;8.83;3.97;;;;;;;14.00;63.46;99633.91;128382;1101;62715;-76
2021/05/17 08:57:50;;;;;;;4.97;3.33;;;;;;;14.11;63.29;99635.85;128443;1101;62654;-76
2021/05/17 09:00:20;;;;;;;4.90;3.17;;;;;;;14.17;62.97;99645.59;128388;1101;62925;-76
2021/05/17 09:02:48;;;;;;;5.50;2.87;;;;;;;14.19;62.14;99632.85;128474;1101;62060;-77
2021/05/17 09:05:23;;;;;;;4.30;2.57;;;;;;;14.23;62.24;99634.03;128335;1101;62849;-77
2021/05/17 09:07:57;;;;;;;4.47;2.60;;;;;;;14.21;62.73;99641.45;128382;1101;62219;-77
2021/05/17 09:10:32;;;;;;;4.65;2.58;;;;;;;14.27;62.52;99643.22;128428;1101;62267;-74
2021/05/17 09:13:07;;;;;;;;;;;;;;;14.26;61.89;99649.61;128463;1101;62119;-75
2021/05/17 09:15:43;;;;;;;3.90;2.50;;;;;;;14.30;62.43;99643.81;128486;1101;62091;-75
2021/05/17 09:18:16;;;;;;;3.63;2.30;;;;;;;14.32;62.09;99649.73;128432;1101;62852;-75
2021/05/17 09:20:48;;;;;;;4.37;2.30;;;;;;;14.27;61.42;99651.22;128439;1101;62212;-75
2021/05/17 09:23:18;;;;;;;3.77;2.53;;;;;;;14.28;61.71;99646.72;128487;1101;62074;-75
2021/05/17 09:26:12;;;;;;;3.60;2.20;;;;;;;14.30;61.44;99646.48;128462;1101;62239;-76
2021/05/17 09:28:44;;;;;;;4.43;2.93;;;;;;;14.39;61.78;99642.48;128459;1101;62077;-77
2021/05/17 09:31:17;;;;;;;3.50;2.30;;;;;;;14.62;61.21;99642.59;128435;1101;62099;-77
2021/05/17 09:33:48;;;;;;;3.53;2.30;;;;;;;14.91;60.76;99640.09;128193;1101;62165;-77
2021/05/17 09:36:30;;;;;;;4.80;2.23;;;;;;;15.29;59.56;99641.55;128431;1101;62322;-76
2021/05/17 09:39:06;;;;;;;4.60;1.70;;;;;;;15.66;59.81;99625.25;128441;1101;62624;-77
2021/05/17 09:41:56;;;;;;;2.17;1.70;;;;;;;15.98;58.77;99627.55;128371;1101;64291;-76
2021/05/17 09:44:28;;;;;;;4.03;1.63;;;;;;;16.19;55.13;99629.58;128446;1101;62644;-77
2021/05/17 09:47:06;;;;;;;3.40;1.60;;;;;;;16.43;55.50;99630.31;128410;1101;62426;-78
2021/05/17 09:49:45;;;;;;;3.10;1.67;;;;;;;16.52;54.99;99628.06;128445;1101;62294;-77
2021/05/17 09:52:25;;;;;;;2.47;1.63;;;;;;;16.46;53.94;99635.18;128424;1101;62250;-78
2021/05/17 09:55:01;;;;;;;3.20;1.20;;;;;;;16.45;55.48;99630.09;128128;1102;62108;-74
2021/05/17 09:57:31;;;;;;;3.77;1.20;;;;;;;16.61;55.15;99631.97;128303;1101;62698;-74
2021/05/17 10:00:14;;;;;;;4.70;1.53;;;;;;;16.75;54.88;99626.33;128438;1101;62419;-75
2021/05/17 10:02:43;;;;;;;2.83;1.60;;;;;;;16.86;53.53;99626.27;128456;1101;62023;-77
2021/05/17 10:05:28;;;;;;;2.10;1.37;;;;;;;16.78;53.33;99617.80;128451;1101;63507;-76
2021/05/17 10:07:58;;;;;;;3.38;1.38;;;;;;;16.85;52.66;99615.80;128458;1101;62321;-75
2021/05/17 10:10:41;;;;;;;3.53;1.40;;;;;;;16.87;52.98;99613.69;128439;1101;62551;-74
2021/05/17 10:13:08;;;;;;;2.70;1.10;;;;;;;16.85;53.66;99605.08;128454;1101;62062;-74
2021/05/17 10:15:36;;;;;;;2.50;1.30;;;;;;;16.81;53.06;99610.13;128433;1101;62164;-74
2021/05/17 10:18:15;;;;;;;2.13;1.23;;;;;;;16.78;54.27;99620.48;128468;1101;62039;-74
2021/05/17 10:20:44;;;;;;;3.43;1.67;;;;;;;16.70;53.75;99624.35;128449;1101;62592;-74
2021/05/17 10:23:13;;;;;;;2.77;1.93;;;;;;;16.80;54.39;99615.69;128185;1101;62482;-74
2021/05/17 10:25:43;;;;;;;2.50;1.33;;;;;;;16.93;53.01;99607.36;128134;1101;62384;-75
2021/05/17 10:28:17;;;;;;;2.20;1.33;;;;;;;16.98;53.23;99603.95;128441;1101;62268;-74
2021/05/17 10:30:44;;;;;;;3.63;1.20;;;;;;;16.94;51.66;99614.36;128422;1101;62008;-75
2021/05/17 10:33:17;;;;;;;1.77;1.40;;;;;;;16.92;52.12;99611.11;128418;1101;62152;-74
2021/05/17 10:35:43;;;;;;;3.33;1.20;;;;;;;16.91;52.46;99609.47;128422;1101;62834;-73
2021/05/17 10:41:23;;;;;;;3.97;1.27;;;;;;;16.58;52.69;99619.08;128441;1101;62399;-73
2021/05/17 10:44:06;;;;;;;3.03;1.40;;;;;;;16.48;53.33;99616.21;128404;1101;62036;-73
2021/05/17 10:46:41;;;;;;;2.37;1.03;;;;;;;16.56;53.51;99607.80;128263;1095;62099;-74
2021/05/17 10:49:32;;;;;;;1.90;0.93;;;;;;;16.89;52.92;99612.41;128413;1101;62106;-74
2021/05/17 10:52:23;;;;;;;2.00;0.90;;;;;;;17.07;51.86;99614.02;128414;1101;62409;-74
2021/05/17 10:55:02;;;;;;;2.07;0.73;;;;;;;17.26;51.06;99609.22;128419;1101;61684;-75
2021/05/17 10:57:34;;;;;;;2.73;1.03;;;;;;;17.56;51.93;99604.55;128449;1101;62071;-74
2021/05/17 11:02:47;;;;;;;1.10;0.70;;;;;;;17.94;51.13;99614.45;128215;1101;62199;-74
2021/05/17 11:05:22;;;;;;;2.53;0.97;;;;;;;18.09;51.47;99619.19;128378;1101;64090;-75
2021/05/17 11:07:54;;;;;;;1.70;1.00;;;;;;;18.13;50.05;99612.27;128448;1101;62595;-74
2021/05/17 11:10:32;;;;;;;1.33;0.70;;;;;;;18.16;49.34;99619.80;128169;1101;62088;-76
2021/05/17 11:13:03;;;;;;;0.73;0.40;;;;;;;18.20;48.83;99610.18;128438;1101;62329;-76
2021/05/17 11:15:42;;;;;;;1.10;0.50;;;;;;;18.09;44.40;99614.63;128428;1101;62190;-75
2021/05/17 11:18:09;;;;;;;0.27;0.10;;;;;;;18.05;43.97;99615.38;128446;1101;62296;-75
2021/05/17 11:23:12;;;;;;;1.17;0.30;;;;;;;17.95;44.31;99604.52;128475;1101;62066;-76
2021/05/17 11:26:10;;;;;;;0.23;0.20;;;;;;;18.01;44.02;99600.84;128497;1101;62731;-76
2021/05/17 11:28:38;;;;;;;0.47;0.20;;;;;;;18.05;44.21;99601.97;128462;1101;63964;-76
2021/05/17 11:31:13;;;;;;;1.33;0.40;;;;;;;18.09;45.02;99603.09;128448;1101;63974;-76
2021/05/17 11:33:59;;;;;;;0.40;0.30;;;;;;;18.08;46.07;99604.94;128474;1101;63094;-76
2021/05/17 11:36:31;;;;;;;1.53;0.50;;;;;;;18.27;46.84;99605.41;128476;1101;61630;-76
2021/05/17 11:39:07;;;;;;;1.60;0.43;;;;;;;18.36;45.91;99608.48;128495;1101;62198;-76
2021/05/17 11:41:54;;;;;;;1.03;0.50;;;;;;;18.37;46.40;99610.09;128465;1101;62886;-76
2021/05/17 11:44:32;;;;;;;1.17;0.40;;;;;;;18.26;46.24;99606.49;128456;1101;62353;-76
2021/05/17 11:47:01;;;;;;;2.63;0.57;;;;;;;18.18;44.96;99612.30;128378;1101;62353;-76
2021/05/17 11:49:31;;;;;;;2.10;0.60;;;;;;;18.09;43.89;99603.89;128414;1101;62143;-75
2021/05/17 11:52:11;;;;;;;3.03;0.60;;;;;;;18.23;44.62;99604.30;128079;1102;62358;-78
2021/05/17 11:54:45;;;;;;;1.80;0.60;;;;;;;18.30;45.02;99596.88;128412;1101;63239;-80
2021/05/17 11:57:13;;;;;;;3.60;0.80;;;;;;;18.29;45.13;99603.29;128438;1101;62194;-79
2021/05/17 11:59:41;;;;;;;0.60;0.40;;;;;;;18.30;45.34;99599.55;128543;1101;62149;-79
2021/05/17 12:02:12;;;;;;;1.90;0.70;;;;;;;18.30;46.50;99612.98;128459;1101;62217;-79
2021/05/17 12:04:40;;;;;;;1.47;0.60;;;;;;;18.30;47.32;99610.30;128315;1101;63910;-77
2021/05/17 12:07:11;;;;;;;1.27;0.70;;;;;;;18.27;47.33;99594.67;128465;1101;61989;-77
2021/05/17 12:09:50;;;;;;;1.97;0.70;;;;;;;18.41;47.66;99599.66;128382;1101;62043;-77
2021/05/17 12:12:18;;;;;;;3.50;0.70;;;;;;;18.78;47.21;99598.92;128406;1101;62233;-77
2021/05/17 12:14:50;;;;;;;1.10;0.50;;;;;;;19.14;45.38;99592.77;128415;1101;62873;-77